BOX529 ESSA-EDDP
Flight info
| Callsign | BOX529 |
|---|---|
| Flight time | 1h 25m |
| Altitude | 36000 |
| Route | NOSLI N850 ABAMA DCT SALLO DCT SUVAL/N0475F350 M736 MAG Z20 KENIG T959 KOJEC KOJEC1V |
| Aircraft | B77L/H-SDE1E2E3FGHIJ2J3J4J5M1RWXY/LB1D1 |
Departure
| Time | 2026-05-04 10:27 |
|---|---|
| Airport | Stockholm-Arlanda Airport (ESSA) |
Arrival
| Time | 2026-05-04 11:53 |
|---|---|
| Airport | Leipzig/Halle Airport (EDDP) |
| Time | Latitude | Longitude | Altitude | Speed | Heading |
|---|---|---|---|---|---|
| 2026-05-04 10:00 | 59.63948 | 17.92815 | 116 ft | 0 kts | 208° |
| 2026-05-04 10:12 | 59.63961 | 17.92828 | 117 ft | 3 kts | 208° |
| 2026-05-04 10:12 | 59.63977 | 17.92849 | 116 ft | 3 kts | 242° |
| 2026-05-04 10:13 | 59.63982 | 17.92888 | 114 ft | 3 kts | 287° |
| 2026-05-04 10:13 | 59.63980 | 17.92899 | 113 ft | 0 kts | 297° |
| 2026-05-04 10:16 | 59.63984 | 17.92885 | 112 ft | 2 kts | 297° |
| 2026-05-04 10:16 | 59.63993 | 17.92855 | 113 ft | 3 kts | 303° |
| 2026-05-04 10:16 | 59.64008 | 17.92825 | 113 ft | 3 kts | 322° |
| 2026-05-04 10:17 | 59.64034 | 17.92802 | 113 ft | 5 kts | 342° |
| 2026-05-04 10:17 | 59.64073 | 17.92783 | 114 ft | 6 kts | 347° |
| 2026-05-04 10:19 | 59.64265 | 17.92245 | 116 ft | 9 kts | 297° |
| 2026-05-04 10:19 | 59.64289 | 17.92152 | 116 ft | 6 kts | 297° |
| 2026-05-04 10:19 | 59.64313 | 17.92063 | 114 ft | 8 kts | 297° |
| 2026-05-04 10:19 | 59.64335 | 17.91979 | 115 ft | 5 kts | 297° |
| 2026-05-04 10:20 | 59.64360 | 17.91926 | 113 ft | 5 kts | 334° |
| 2026-05-04 10:20 | 59.64395 | 17.91928 | 114 ft | 6 kts | 7° |
| 2026-05-04 10:20 | 59.64445 | 17.91944 | 114 ft | 8 kts | 10° |
| 2026-05-04 10:20 | 59.64515 | 17.91969 | 112 ft | 12 kts | 10° |
| 2026-05-04 10:21 | 59.64611 | 17.92004 | 114 ft | 16 kts | 10° |
| 2026-05-04 10:21 | 59.64733 | 17.92048 | 110 ft | 19 kts | 10° |
| 2026-05-04 10:21 | 59.64867 | 17.92096 | 109 ft | 20 kts | 10° |
| 2026-05-04 10:21 | 59.65002 | 17.92145 | 108 ft | 20 kts | 11° |
| 2026-05-04 10:22 | 59.65273 | 17.92243 | 110 ft | 20 kts | 10° |
| 2026-05-04 10:22 | 59.65415 | 17.92294 | 109 ft | 21 kts | 10° |
| 2026-05-04 10:22 | 59.65560 | 17.92347 | 109 ft | 21 kts | 11° |
| 2026-05-04 10:23 | 59.65706 | 17.92400 | 109 ft | 21 kts | 10° |
| 2026-05-04 10:23 | 59.65851 | 17.92453 | 109 ft | 21 kts | 10° |
| 2026-05-04 10:25 | 59.66570 | 17.92581 | 124 ft | 8 kts | 340° |
| 2026-05-04 10:25 | 59.66612 | 17.92516 | 126 ft | 8 kts | 300° |
| 2026-05-04 10:25 | 59.66620 | 17.92436 | 127 ft | 4 kts | 277° |
| 2026-05-04 10:25 | 59.66617 | 17.92396 | 127 ft | 2 kts | 247° |
| 2026-05-04 10:26 | 59.66602 | 17.92372 | 125 ft | 4 kts | 209° |
| 2026-05-04 10:26 | 59.66588 | 17.92363 | 126 ft | 0 kts | 195° |
| 2026-05-04 10:26 | 59.66583 | 17.92360 | 126 ft | 6 kts | 194° |
| 2026-05-04 10:27 | 59.66391 | 17.92287 | 124 ft | 63 kts | 191° |
| 2026-05-04 10:27 | 59.65676 | 17.92027 | 110 ft | 143 kts | 191° |
| 2026-05-04 10:27 | 59.64554 | 17.91634 | 477 ft | 166 kts | 193° |
| 2026-05-04 10:27 | 59.63401 | 17.91193 | 1339 ft | 174 kts | 195° |
| 2026-05-04 10:28 | 59.62206 | 17.90716 | 2224 ft | 178 kts | 199° |
| 2026-05-04 10:28 | 59.61140 | 17.89336 | 2620 ft | 200 kts | 236° |
| 2026-05-04 10:28 | 59.60636 | 17.87692 | 2822 ft | 223 kts | 240° |
| 2026-05-04 10:28 | 59.59477 | 17.84031 | 3820 ft | 244 kts | 238° |
| 2026-05-04 10:29 | 59.58566 | 17.81181 | 4953 ft | 245 kts | 241° |
| 2026-05-04 10:29 | 59.58029 | 17.79218 | 5687 ft | 246 kts | 243° |
| 2026-05-04 10:29 | 59.57138 | 17.76332 | 6581 ft | 252 kts | 227° |
| 2026-05-04 10:29 | 59.55700 | 17.74276 | 7351 ft | 260 kts | 215° |
| 2026-05-04 10:30 | 59.54162 | 17.72344 | 8354 ft | 263 kts | 217° |
| 2026-05-04 10:30 | 59.52621 | 17.70353 | 9415 ft | 266 kts | 217° |
| 2026-05-04 10:30 | 59.51060 | 17.68317 | 10283 ft | 275 kts | 218° |
| 2026-05-04 10:30 | 59.49395 | 17.66125 | 10679 ft | 304 kts | 218° |
| 2026-05-04 10:31 | 59.47547 | 17.63678 | 10904 ft | 336 kts | 217° |
| 2026-05-04 10:31 | 59.45550 | 17.61038 | 11648 ft | 352 kts | 217° |
| 2026-05-04 10:32 | 59.32911 | 17.44395 | 18248 ft | 378 kts | 217° |
| 2026-05-04 10:33 | 59.30742 | 17.41545 | 19157 ft | 381 kts | 217° |
| 2026-05-04 10:33 | 59.28534 | 17.38647 | 20078 ft | 383 kts | 217° |
| 2026-05-04 10:33 | 59.26308 | 17.35731 | 21020 ft | 386 kts | 217° |
| 2026-05-04 10:33 | 59.24065 | 17.32795 | 21915 ft | 390 kts | 217° |
| 2026-05-04 10:34 | 59.21787 | 17.29818 | 22810 ft | 394 kts | 217° |
| 2026-05-04 10:34 | 59.19496 | 17.26829 | 23613 ft | 398 kts | 217° |
| 2026-05-04 10:34 | 59.17208 | 17.23848 | 24322 ft | 402 kts | 217° |
| 2026-05-04 10:34 | 59.14870 | 17.20808 | 25026 ft | 405 kts | 217° |
| 2026-05-04 10:35 | 59.12509 | 17.17742 | 25720 ft | 409 kts | 216° |
| 2026-05-04 10:35 | 59.10125 | 17.14654 | 26382 ft | 414 kts | 216° |
| 2026-05-04 10:35 | 59.07715 | 17.11535 | 27035 ft | 418 kts | 216° |
| 2026-05-04 10:35 | 59.05281 | 17.08391 | 27679 ft | 422 kts | 216° |
| 2026-05-04 10:36 | 59.02826 | 17.05227 | 28295 ft | 425 kts | 216° |
| 2026-05-04 10:36 | 59.00347 | 17.02036 | 28882 ft | 429 kts | 216° |
| 2026-05-04 10:36 | 58.97849 | 16.98826 | 29444 ft | 433 kts | 216° |
| 2026-05-04 10:36 | 58.95323 | 16.95586 | 29944 ft | 436 kts | 216° |
| 2026-05-04 10:37 | 58.92817 | 16.92380 | 30498 ft | 436 kts | 216° |
| 2026-05-04 10:37 | 58.90298 | 16.89164 | 31218 ft | 433 kts | 216° |
| 2026-05-04 10:37 | 58.87784 | 16.85959 | 31929 ft | 431 kts | 216° |
| 2026-05-04 10:37 | 58.85284 | 16.82775 | 32569 ft | 430 kts | 216° |
| 2026-05-04 10:39 | 58.70205 | 16.63683 | 35161 ft | 435 kts | 216° |
| 2026-05-04 10:39 | 58.67665 | 16.60486 | 35534 ft | 436 kts | 216° |
| 2026-05-04 10:39 | 58.65116 | 16.57283 | 35770 ft | 440 kts | 216° |
| 2026-05-04 10:40 | 58.62571 | 16.54091 | 35743 ft | 443 kts | 216° |
| 2026-05-04 10:40 | 58.57677 | 16.47061 | 35770 ft | 435 kts | 221° |
| 2026-05-04 10:41 | 58.53000 | 16.39715 | 35733 ft | 434 kts | 221° |
| 2026-05-04 10:41 | 58.48311 | 16.32425 | 35746 ft | 434 kts | 221° |
| 2026-05-04 10:42 | 58.43613 | 16.25164 | 35749 ft | 435 kts | 221° |
| 2026-05-04 10:42 | 58.38899 | 16.17905 | 35747 ft | 436 kts | 221° |
| 2026-05-04 10:43 | 58.34164 | 16.10637 | 35746 ft | 437 kts | 221° |
| 2026-05-04 10:45 | 58.15138 | 15.81691 | 35755 ft | 440 kts | 221° |
| 2026-05-04 10:45 | 58.10344 | 15.74460 | 35756 ft | 440 kts | 221° |
| 2026-05-04 10:46 | 58.05583 | 15.67301 | 35724 ft | 440 kts | 220° |
| 2026-05-04 10:46 | 58.00754 | 15.60208 | 35747 ft | 440 kts | 217° |
| 2026-05-04 10:47 | 57.95420 | 15.54428 | 35750 ft | 444 kts | 208° |
| 2026-05-04 10:47 | 57.89698 | 15.49964 | 35754 ft | 445 kts | 205° |
| 2026-05-04 10:49 | 57.66757 | 15.32458 | 35760 ft | 445 kts | 206° |
| 2026-05-04 10:50 | 57.61062 | 15.28124 | 35767 ft | 445 kts | 206° |
| 2026-05-04 10:52 | 57.38109 | 15.10812 | 35788 ft | 445 kts | 205° |
| 2026-05-04 10:52 | 57.32395 | 15.06540 | 35793 ft | 445 kts | 205° |
| 2026-05-04 10:54 | 57.09395 | 14.89483 | 35811 ft | 447 kts | 205° |
| 2026-05-04 10:56 | 56.86289 | 14.72578 | 35832 ft | 447 kts | 205° |
| 2026-05-04 10:57 | 56.80512 | 14.68386 | 35830 ft | 447 kts | 205° |
| 2026-05-04 10:57 | 56.74734 | 14.64209 | 35817 ft | 446 kts | 205° |
| 2026-05-04 10:58 | 56.68956 | 14.60044 | 35827 ft | 446 kts | 205° |
| 2026-05-04 10:58 | 56.63178 | 14.55893 | 35841 ft | 446 kts | 205° |
| 2026-05-04 10:59 | 56.57399 | 14.51755 | 35843 ft | 446 kts | 205° |
| 2026-05-04 10:59 | 56.51656 | 14.47656 | 35827 ft | 446 kts | 205° |
| 2026-05-04 11:00 | 56.45868 | 14.43540 | 35854 ft | 446 kts | 205° |
| 2026-05-04 11:02 | 56.22717 | 14.27206 | 35863 ft | 446 kts | 205° |
| 2026-05-04 11:05 | 55.79443 | 13.97238 | 35887 ft | 441 kts | 205° |
| 2026-05-04 11:06 | 55.73719 | 13.93327 | 35878 ft | 440 kts | 205° |
| 2026-05-04 11:06 | 55.67999 | 13.89432 | 35889 ft | 440 kts | 205° |
| 2026-05-04 11:10 | 55.28066 | 13.62569 | 35907 ft | 438 kts | 205° |
| 2026-05-04 11:12 | 55.05287 | 13.47503 | 35927 ft | 438 kts | 205° |
| 2026-05-04 11:12 | 54.99584 | 13.43759 | 35930 ft | 438 kts | 205° |
| 2026-05-04 11:13 | 54.93885 | 13.40029 | 35943 ft | 437 kts | 205° |
| 2026-05-04 11:13 | 54.88202 | 13.36260 | 35944 ft | 437 kts | 205° |
| 2026-05-04 11:14 | 54.82547 | 13.32371 | 35946 ft | 437 kts | 206° |
| 2026-05-04 11:16 | 54.59933 | 13.16941 | 35952 ft | 438 kts | 205° |
| 2026-05-04 11:16 | 54.54258 | 13.13109 | 35918 ft | 438 kts | 205° |
| 2026-05-04 11:17 | 54.49537 | 13.09929 | 35948 ft | 438 kts | 205° |
| 2026-05-04 11:19 | 54.26732 | 12.94680 | 35952 ft | 440 kts | 205° |
| 2026-05-04 11:19 | 54.21056 | 12.90912 | 35963 ft | 441 kts | 205° |
| 2026-05-04 11:20 | 54.15337 | 12.87128 | 35962 ft | 441 kts | 205° |
| 2026-05-04 11:20 | 54.09609 | 12.83349 | 35962 ft | 441 kts | 205° |
| 2026-05-04 11:22 | 53.86669 | 12.68325 | 35965 ft | 443 kts | 205° |
| 2026-05-04 11:23 | 53.80898 | 12.64572 | 35955 ft | 444 kts | 205° |
| 2026-05-04 11:25 | 53.60696 | 12.51526 | 35960 ft | 445 kts | 205° |
| 2026-05-04 11:25 | 53.54907 | 12.47813 | 35959 ft | 445 kts | 205° |
| 2026-05-04 11:27 | 53.28827 | 12.31215 | 35961 ft | 444 kts | 205° |
| 2026-05-04 11:28 | 53.23088 | 12.27592 | 35966 ft | 444 kts | 205° |
| 2026-05-04 11:28 | 53.17307 | 12.23953 | 35967 ft | 444 kts | 204° |
| 2026-05-04 11:29 | 53.11522 | 12.20321 | 35957 ft | 444 kts | 204° |
| 2026-05-04 11:29 | 53.05732 | 12.16697 | 35971 ft | 444 kts | 204° |
| 2026-05-04 11:33 | 52.65226 | 11.91697 | 35952 ft | 446 kts | 200° |
| 2026-05-04 11:33 | 52.59114 | 11.89633 | 35969 ft | 452 kts | 191° |
| 2026-05-04 11:34 | 52.52884 | 11.88630 | 35968 ft | 452 kts | 190° |
| 2026-05-04 11:34 | 52.46619 | 11.87587 | 35973 ft | 452 kts | 191° |
| 2026-05-04 11:35 | 52.40359 | 11.86509 | 35958 ft | 452 kts | 191° |
| 2026-05-04 11:35 | 52.34113 | 11.85434 | 35971 ft | 451 kts | 191° |
| 2026-05-04 11:36 | 52.27871 | 11.84318 | 35977 ft | 451 kts | 191° |
| 2026-05-04 11:36 | 52.21624 | 11.83194 | 35977 ft | 451 kts | 191° |
| 2026-05-04 11:37 | 52.15384 | 11.82106 | 35305 ft | 462 kts | 191° |
| 2026-05-04 11:37 | 52.12195 | 11.81574 | 34630 ft | 457 kts | 189° |
| 2026-05-04 11:37 | 52.09007 | 11.81765 | 33914 ft | 462 kts | 176° |
| 2026-05-04 11:38 | 52.05864 | 11.83052 | 33041 ft | 467 kts | 167° |
| 2026-05-04 11:38 | 52.02836 | 11.85050 | 31969 ft | 474 kts | 159° |
| 2026-05-04 11:38 | 52.00007 | 11.87929 | 30760 ft | 487 kts | 147° |
| 2026-05-04 11:38 | 51.97449 | 11.91618 | 29556 ft | 497 kts | 138° |
| 2026-05-04 11:39 | 51.95231 | 11.95937 | 28455 ft | 499 kts | 130° |
| 2026-05-04 11:39 | 51.93244 | 12.00538 | 27405 ft | 498 kts | 128° |
| 2026-05-04 11:40 | 51.82410 | 12.28468 | 21673 ft | 453 kts | 124° |
| 2026-05-04 11:41 | 51.80843 | 12.32632 | 20651 ft | 426 kts | 124° |
| 2026-05-04 11:41 | 51.79340 | 12.36638 | 19654 ft | 406 kts | 124° |
| 2026-05-04 11:41 | 51.77885 | 12.40516 | 18719 ft | 406 kts | 124° |
| 2026-05-04 11:41 | 51.76400 | 12.44446 | 17724 ft | 414 kts | 124° |
| 2026-05-04 11:42 | 51.74881 | 12.48435 | 16717 ft | 420 kts | 124° |
| 2026-05-04 11:42 | 51.73332 | 12.52472 | 15716 ft | 424 kts | 124° |
| 2026-05-04 11:42 | 51.71774 | 12.56499 | 14722 ft | 416 kts | 124° |
| 2026-05-04 11:42 | 51.70304 | 12.60291 | 13749 ft | 389 kts | 124° |
| 2026-05-04 11:43 | 51.68934 | 12.63817 | 12730 ft | 367 kts | 124° |
| 2026-05-04 11:43 | 51.67617 | 12.67214 | 11797 ft | 347 kts | 125° |
| 2026-05-04 11:43 | 51.66379 | 12.70444 | 10920 ft | 331 kts | 125° |
| 2026-05-04 11:43 | 51.65211 | 12.73523 | 10376 ft | 311 kts | 124° |
| 2026-05-04 11:44 | 51.64100 | 12.76469 | 10013 ft | 306 kts | 126° |
| 2026-05-04 11:44 | 51.62744 | 12.79004 | 9465 ft | 297 kts | 148° |
| 2026-05-04 11:44 | 51.60906 | 12.80309 | 9062 ft | 284 kts | 174° |
| 2026-05-04 11:44 | 51.58997 | 12.80182 | 8797 ft | 268 kts | 196° |
| 2026-05-04 11:45 | 51.57313 | 12.79086 | 8529 ft | 257 kts | 211° |
| 2026-05-04 11:45 | 51.55796 | 12.77616 | 8164 ft | 254 kts | 214° |
| 2026-05-04 11:45 | 51.54297 | 12.76073 | 7675 ft | 257 kts | 214° |
| 2026-05-04 11:45 | 51.52812 | 12.74534 | 7214 ft | 247 kts | 214° |
| 2026-05-04 11:46 | 51.51411 | 12.73080 | 6736 ft | 232 kts | 214° |
| 2026-05-04 11:46 | 51.50090 | 12.71715 | 6283 ft | 221 kts | 214° |
| 2026-05-04 11:46 | 51.48817 | 12.70402 | 6004 ft | 218 kts | 214° |
| 2026-05-04 11:46 | 51.47532 | 12.69078 | 5755 ft | 220 kts | 214° |
| 2026-05-04 11:47 | 51.46244 | 12.67751 | 5503 ft | 219 kts | 214° |
| 2026-05-04 11:47 | 51.44968 | 12.66438 | 5253 ft | 217 kts | 214° |
| 2026-05-04 11:47 | 51.43892 | 12.64832 | 4993 ft | 211 kts | 243° |
| 2026-05-04 11:47 | 51.43606 | 12.62560 | 4775 ft | 213 kts | 278° |
| 2026-05-04 11:48 | 51.43994 | 12.60330 | 4504 ft | 204 kts | 283° |
| 2026-05-04 11:48 | 51.44273 | 12.58139 | 4267 ft | 197 kts | 277° |
| 2026-05-04 11:48 | 51.44409 | 12.55948 | 4012 ft | 197 kts | 272° |
| 2026-05-04 11:48 | 51.44477 | 12.53776 | 3735 ft | 193 kts | 271° |
| 2026-05-04 11:49 | 51.44483 | 12.51648 | 3487 ft | 189 kts | 268° |
| 2026-05-04 11:49 | 51.44415 | 12.49564 | 3268 ft | 184 kts | 265° |
| 2026-05-04 11:49 | 51.44325 | 12.47529 | 3002 ft | 180 kts | 265° |
| 2026-05-04 11:49 | 51.44237 | 12.45581 | 2752 ft | 169 kts | 265° |
| 2026-05-04 11:50 | 51.44155 | 12.43805 | 2561 ft | 154 kts | 264° |
| 2026-05-04 11:50 | 51.44079 | 12.42164 | 2329 ft | 145 kts | 265° |
| 2026-05-04 11:50 | 51.44004 | 12.40533 | 2181 ft | 145 kts | 265° |
| 2026-05-04 11:50 | 51.43928 | 12.38945 | 1980 ft | 142 kts | 265° |
| 2026-05-04 11:51 | 51.43846 | 12.37352 | 1861 ft | 148 kts | 265° |
| 2026-05-04 11:51 | 51.43776 | 12.35709 | 1605 ft | 144 kts | 265° |
| 2026-05-04 11:51 | 51.43708 | 12.34139 | 1385 ft | 137 kts | 265° |
| 2026-05-04 11:51 | 51.43644 | 12.32606 | 1174 ft | 138 kts | 265° |
| 2026-05-04 11:52 | 51.43560 | 12.31067 | 1048 ft | 139 kts | 265° |
| 2026-05-04 11:52 | 51.43492 | 12.29541 | 836 ft | 139 kts | 265° |
| 2026-05-04 11:52 | 51.43423 | 12.28016 | 660 ft | 135 kts | 266° |
| 2026-05-04 11:52 | 51.43356 | 12.26546 | 483 ft | 132 kts | 266° |
| 2026-05-04 11:53 | 51.43295 | 12.25208 | 462 ft | 103 kts | 266° |
| 2026-05-04 11:53 | 51.43253 | 12.24307 | 450 ft | 59 kts | 265° |
| 2026-05-04 11:53 | 51.43234 | 12.23899 | 451 ft | 10 kts | 263° |
| 2026-05-04 11:53 | 51.43200 | 12.23799 | 454 ft | 10 kts | 234° |
| 2026-05-04 11:55 | 51.42890 | 12.23215 | 436 ft | 14 kts | 265° |
| 2026-05-04 11:55 | 51.42880 | 12.23004 | 436 ft | 21 kts | 266° |
| 2026-05-04 11:56 | 51.42870 | 12.22771 | 434 ft | 21 kts | 266° |
| 2026-05-04 11:56 | 51.42859 | 12.22539 | 429 ft | 21 kts | 265° |
| 2026-05-04 11:56 | 51.42847 | 12.22303 | 442 ft | 21 kts | 265° |
| 2026-05-04 11:56 | 51.42836 | 12.22063 | 439 ft | 23 kts | 266° |
| 2026-05-04 11:57 | 51.42825 | 12.21810 | 428 ft | 22 kts | 266° |
| 2026-05-04 11:57 | 51.42813 | 12.21567 | 425 ft | 20 kts | 265° |
| 2026-05-04 11:57 | 51.42805 | 12.21393 | 426 ft | 13 kts | 265° |
| 2026-05-04 11:57 | 51.42795 | 12.21283 | 429 ft | 9 kts | 251° |
| 2026-05-04 11:58 | 51.42745 | 12.21224 | 428 ft | 9 kts | 193° |
| 2026-05-04 11:58 | 51.42681 | 12.21197 | 427 ft | 9 kts | 195° |
| 2026-05-04 11:58 | 51.42618 | 12.21170 | 437 ft | 9 kts | 195° |
| 2026-05-04 11:58 | 51.42554 | 12.21142 | 447 ft | 10 kts | 195° |
| 2026-05-04 11:59 | 51.42486 | 12.21113 | 447 ft | 11 kts | 195° |
| 2026-05-04 11:59 | 51.42411 | 12.21080 | 447 ft | 12 kts | 195° |
| 2026-05-04 11:59 | 51.42313 | 12.21037 | 432 ft | 18 kts | 195° |
| 2026-05-04 11:59 | 51.42170 | 12.20974 | 426 ft | 23 kts | 195° |
| 2026-05-04 12:00 | 51.42007 | 12.20903 | 421 ft | 25 kts | 195° |
| 2026-05-04 12:00 | 51.41842 | 12.20831 | 429 ft | 25 kts | 195° |
| 2026-05-04 12:00 | 51.41677 | 12.20760 | 432 ft | 25 kts | 195° |
| 2026-05-04 12:00 | 51.41515 | 12.20688 | 431 ft | 25 kts | 195° |
| 2026-05-04 12:01 | 51.41348 | 12.20614 | 447 ft | 24 kts | 195° |
| 2026-05-04 12:01 | 51.41204 | 12.20551 | 433 ft | 19 kts | 195° |
| 2026-05-04 12:02 | 51.41036 | 12.21482 | 458 ft | 28 kts | 86° |
| 2026-05-04 12:03 | 51.41051 | 12.21794 | 463 ft | 28 kts | 85° |
| 2026-05-04 12:03 | 51.41065 | 12.22103 | 461 ft | 28 kts | 86° |
| 2026-05-04 12:03 | 51.41079 | 12.22415 | 460 ft | 28 kts | 86° |
| 2026-05-04 12:03 | 51.41093 | 12.22728 | 464 ft | 28 kts | 86° |
| 2026-05-04 12:04 | 51.41109 | 12.23041 | 470 ft | 28 kts | 85° |
| 2026-05-04 12:04 | 51.41124 | 12.23354 | 474 ft | 28 kts | 86° |
| 2026-05-04 12:04 | 51.41135 | 12.23595 | 469 ft | 14 kts | 86° |
| 2026-05-04 12:04 | 51.41144 | 12.23771 | 467 ft | 17 kts | 85° |
| 2026-05-04 12:05 | 51.41149 | 12.23892 | 468 ft | 16 kts | 86° |
| 2026-05-04 12:05 | 51.41158 | 12.24080 | 468 ft | 18 kts | 85° |
| 2026-05-04 12:05 | 51.41168 | 12.24295 | 468 ft | 18 kts | 85° |
| 2026-05-04 12:05 | 51.41176 | 12.24451 | 467 ft | 5 kts | 85° |
| 2026-05-04 12:06 | 51.41178 | 12.24493 | 468 ft | 6 kts | 85° |
| 2026-05-04 12:06 | 51.41170 | 12.24556 | 467 ft | 6 kts | 126° |
| 2026-05-04 12:06 | 51.41126 | 12.24604 | 469 ft | 9 kts | 148° |
| 2026-05-04 12:06 | 51.41069 | 12.24643 | 470 ft | 9 kts | 168° |
| 2026-05-04 12:07 | 51.41007 | 12.24654 | 467 ft | 9 kts | 175° |
| 2026-05-04 12:07 | 51.40936 | 12.24662 | 468 ft | 12 kts | 175° |
| 2026-05-04 12:07 | 51.40876 | 12.24669 | 470 ft | 3 kts | 176° |
| 2026-05-04 12:07 | 51.40842 | 12.24673 | 466 ft | 6 kts | 176° |
| 2026-05-04 12:08 | 51.40805 | 12.24671 | 468 ft | 3 kts | 202° |
| 2026-05-04 12:08 | 51.40795 | 12.24635 | 467 ft | 4 kts | 265° |
| 2026-05-04 12:08 | 51.40794 | 12.24585 | 468 ft | 4 kts | 266° |
| 2026-05-04 12:08 | 51.40791 | 12.24539 | 468 ft | 2 kts | 265° |
| 2026-05-04 12:09 | 51.40791 | 12.24530 | 468 ft | 0 kts | 265° |